sensor_id;sensor_type;location;lat;lon;timestamp;P1;durP1;ratioP1;P2;durP2;ratioP2
7557;SDS011;3820;51.098;13.716;2023-02-14T00:01:56;42.03;;;27.57;;
7557;SDS011;3820;51.098;13.716;2023-02-14T00:04:23;41.97;;;26.50;;
7557;SDS011;3820;51.098;13.716;2023-02-14T00:06:50;38.67;;;26.00;;
7557;SDS011;3820;51.098;13.716;2023-02-14T00:09:17;40.00;;;25.83;;
7557;SDS011;3820;51.098;13.716;2023-02-14T00:11:44;40.17;;;26.23;;
7557;SDS011;3820;51.098;13.716;2023-02-14T00:14:11;41.43;;;26.60;;
7557;SDS011;3820;51.098;13.716;2023-02-14T00:16:57;41.70;;;26.77;;
7557;SDS011;3820;51.098;13.716;2023-02-14T00:19:23;39.20;;;26.10;;
7557;SDS011;3820;51.098;13.716;2023-02-14T00:21:50;41.67;;;26.30;;
7557;SDS011;3820;51.098;13.716;2023-02-14T00:24:21;38.73;;;25.27;;
7557;SDS011;3820;51.098;13.716;2023-02-14T00:26:51;40.37;;;25.10;;
7557;SDS011;3820;51.098;13.716;2023-02-14T00:29:28;40.00;;;26.07;;
7557;SDS011;3820;51.098;13.716;2023-02-14T00:31:56;39.93;;;26.27;;
7557;SDS011;3820;51.098;13.716;2023-02-14T00:34:23;43.33;;;26.03;;
7557;SDS011;3820;51.098;13.716;2023-02-14T00:36:50;39.90;;;24.90;;
7557;SDS011;3820;51.098;13.716;2023-02-14T00:39:17;38.63;;;24.30;;
7557;SDS011;3820;51.098;13.716;2023-02-14T00:41:44;38.73;;;25.03;;
7557;SDS011;3820;51.098;13.716;2023-02-14T00:44:11;42.57;;;26.67;;
7557;SDS011;3820;51.098;13.716;2023-02-14T00:46:38;39.97;;;24.70;;
7557;SDS011;3820;51.098;13.716;2023-02-14T00:49:05;38.23;;;24.20;;
7557;SDS011;3820;51.098;13.716;2023-02-14T00:51:32;37.47;;;24.00;;
7557;SDS011;3820;51.098;13.716;2023-02-14T00:53:59;41.73;;;25.50;;
7557;SDS011;3820;51.098;13.716;2023-02-14T00:56:26;40.37;;;25.40;;
7557;SDS011;3820;51.098;13.716;2023-02-14T00:58:52;41.10;;;26.17;;
7557;SDS011;3820;51.098;13.716;2023-02-14T01:01:19;39.60;;;24.07;;
7557;SDS011;3820;51.098;13.716;2023-02-14T01:03:46;40.23;;;25.43;;
7557;SDS011;3820;51.098;13.716;2023-02-14T01:06:13;37.60;;;25.13;;
7557;SDS011;3820;51.098;13.716;2023-02-14T01:08:39;42.60;;;26.80;;
7557;SDS011;3820;51.098;13.716;2023-02-14T01:11:10;42.63;;;26.77;;
7557;SDS011;3820;51.098;13.716;2023-02-14T01:13:38;41.50;;;26.43;;
7557;SDS011;3820;51.098;13.716;2023-02-14T01:16:09;45.17;;;27.80;;
7557;SDS011;3820;51.098;13.716;2023-02-14T01:18:38;47.37;;;28.07;;
7557;SDS011;3820;51.098;13.716;2023-02-14T01:23:49;46.73;;;28.60;;
7557;SDS011;3820;51.098;13.716;2023-02-14T01:26:18;44.70;;;28.73;;
7557;SDS011;3820;51.098;13.716;2023-02-14T01:28:46;51.60;;;29.77;;
7557;SDS011;3820;51.098;13.716;2023-02-14T01:31:13;44.30;;;28.83;;
7557;SDS011;3820;51.098;13.716;2023-02-14T01:33:42;42.20;;;27.47;;
7557;SDS011;3820;51.098;13.716;2023-02-14T01:36:14;46.57;;;28.13;;
7557;SDS011;3820;51.098;13.716;2023-02-14T01:38:51;46.70;;;29.77;;
7557;SDS011;3820;51.098;13.716;2023-02-14T01:41:19;45.27;;;28.60;;
7557;SDS011;3820;51.098;13.716;2023-02-14T01:43:50;45.40;;;28.57;;
7557;SDS011;3820;51.098;13.716;2023-02-14T01:46:18;46.10;;;28.47;;
7557;SDS011;3820;51.098;13.716;2023-02-14T01:48:45;46.00;;;29.10;;
7557;SDS011;3820;51.098;13.716;2023-02-14T01:51:12;46.37;;;29.03;;
7557;SDS011;3820;51.098;13.716;2023-02-14T01:53:40;45.27;;;28.03;;
7557;SDS011;3820;51.098;13.716;2023-02-14T01:56:08;46.57;;;28.03;;
7557;SDS011;3820;51.098;13.716;2023-02-14T01:58:38;42.60;;;27.67;;
7557;SDS011;3820;51.098;13.716;2023-02-14T02:01:11;48.00;;;28.53;;
7557;SDS011;3820;51.098;13.716;2023-02-14T02:03:46;45.83;;;28.47;;
7557;SDS011;3820;51.098;13.716;2023-02-14T02:06:25;44.67;;;27.47;;
7557;SDS011;3820;51.098;13.716;2023-02-14T02:09:09;45.13;;;27.97;;
7557;SDS011;3820;51.098;13.716;2023-02-14T02:11:41;45.67;;;28.53;;
7557;SDS011;3820;51.098;13.716;2023-02-14T02:14:18;49.47;;;29.23;;
7557;SDS011;3820;51.098;13.716;2023-02-14T02:19:41;44.83;;;27.40;;
7557;SDS011;3820;51.098;13.716;2023-02-14T02:22:28;45.37;;;28.33;;
7557;SDS011;3820;51.098;13.716;2023-02-14T02:25:52;50.00;;;28.73;;
7557;SDS011;3820;51.098;13.716;2023-02-14T02:31:10;44.30;;;28.27;;
7557;SDS011;3820;51.098;13.716;2023-02-14T02:39:27;48.63;;;29.17;;
7557;SDS011;3820;51.098;13.716;2023-02-14T02:44:38;48.30;;;28.13;;
7557;SDS011;3820;51.098;13.716;2023-02-14T02:52:50;50.43;;;28.83;;
7557;SDS011;3820;51.098;13.716;2023-02-14T02:55:36;50.67;;;28.90;;
7557;SDS011;3820;51.098;13.716;2023-02-14T02:58:28;50.30;;;29.37;;
7557;SDS011;3820;51.098;13.716;2023-02-14T03:00:58;46.73;;;28.40;;
7557;SDS011;3820;51.098;13.716;2023-02-14T03:03:27;47.13;;;28.43;;
7557;SDS011;3820;51.098;13.716;2023-02-14T03:06:12;51.30;;;30.13;;
7557;SDS011;3820;51.098;13.716;2023-02-14T03:08:39;49.97;;;29.73;;
7557;SDS011;3820;51.098;13.716;2023-02-14T03:11:05;51.83;;;30.60;;
7557;SDS011;3820;51.098;13.716;2023-02-14T03:13:53;51.50;;;30.73;;
7557;SDS011;3820;51.098;13.716;2023-02-14T03:16:33;54.10;;;30.17;;
7557;SDS011;3820;51.098;13.716;2023-02-14T03:19:06;47.90;;;28.43;;
7557;SDS011;3820;51.098;13.716;2023-02-14T03:24:47;54.23;;;30.83;;
7557;SDS011;3820;51.098;13.716;2023-02-14T03:27:24;53.13;;;31.03;;
7557;SDS011;3820;51.098;13.716;2023-02-14T03:32:58;52.80;;;30.10;;
7557;SDS011;3820;51.098;13.716;2023-02-14T03:38:08;51.03;;;30.90;;
7557;SDS011;3820;51.098;13.716;2023-02-14T03:40:54;50.67;;;28.73;;
7557;SDS011;3820;51.098;13.716;2023-02-14T03:43:25;46.37;;;28.63;;
7557;SDS011;3820;51.098;13.716;2023-02-14T03:46:02;47.43;;;27.83;;
7557;SDS011;3820;51.098;13.716;2023-02-14T03:48:32;49.77;;;28.63;;
7557;SDS011;3820;51.098;13.716;2023-02-14T03:50:59;50.90;;;29.77;;
7557;SDS011;3820;51.098;13.716;2023-02-14T03:53:27;51.23;;;29.20;;
7557;SDS011;3820;51.098;13.716;2023-02-14T03:56:09;50.33;;;29.90;;
7557;SDS011;3820;51.098;13.716;2023-02-14T03:58:37;51.90;;;29.77;;
7557;SDS011;3820;51.098;13.716;2023-02-14T04:01:07;49.33;;;28.83;;
7557;SDS011;3820;51.098;13.716;2023-02-14T04:03:37;49.03;;;28.63;;
7557;SDS011;3820;51.098;13.716;2023-02-14T04:06:06;50.13;;;29.23;;
7557;SDS011;3820;51.098;13.716;2023-02-14T04:08:32;46.37;;;27.93;;
7557;SDS011;3820;51.098;13.716;2023-02-14T04:10:59;47.17;;;27.73;;
7557;SDS011;3820;51.098;13.716;2023-02-14T04:13:27;49.57;;;28.27;;
7557;SDS011;3820;51.098;13.716;2023-02-14T04:15:54;48.03;;;28.57;;
7557;SDS011;3820;51.098;13.716;2023-02-14T04:18:20;48.33;;;27.80;;
7557;SDS011;3820;51.098;13.716;2023-02-14T04:21:05;47.37;;;26.90;;
7557;SDS011;3820;51.098;13.716;2023-02-14T04:23:32;48.23;;;28.03;;
7557;SDS011;3820;51.098;13.716;2023-02-14T04:25:58;48.00;;;28.40;;
7557;SDS011;3820;51.098;13.716;2023-02-14T04:28:25;47.97;;;27.90;;
7557;SDS011;3820;51.098;13.716;2023-02-14T04:30:51;46.03;;;28.13;;
7557;SDS011;3820;51.098;13.716;2023-02-14T04:33:17;49.03;;;28.43;;
7557;SDS011;3820;51.098;13.716;2023-02-14T04:35:44;48.50;;;28.33;;
7557;SDS011;3820;51.098;13.716;2023-02-14T04:38:11;48.27;;;28.00;;
7557;SDS011;3820;51.098;13.716;2023-02-14T04:40:37;47.20;;;27.70;;
7557;SDS011;3820;51.098;13.716;2023-02-14T04:43:04;45.07;;;26.50;;
7557;SDS011;3820;51.098;13.716;2023-02-14T04:45:32;46.53;;;27.63;;
7557;SDS011;3820;51.098;13.716;2023-02-14T04:47:59;47.30;;;27.57;;
7557;SDS011;3820;51.098;13.716;2023-02-14T04:50:26;45.97;;;27.80;;
7557;SDS011;3820;51.098;13.716;2023-02-14T04:52:52;45.90;;;27.33;;
7557;SDS011;3820;51.098;13.716;2023-02-14T04:55:19;51.90;;;27.60;;
7557;SDS011;3820;51.098;13.716;2023-02-14T04:57:45;46.67;;;27.80;;
7557;SDS011;3820;51.098;13.716;2023-02-14T05:00:12;51.03;;;29.17;;
7557;SDS011;3820;51.098;13.716;2023-02-14T05:02:39;44.47;;;27.13;;
7557;SDS011;3820;51.098;13.716;2023-02-14T05:05:06;44.70;;;27.30;;
7557;SDS011;3820;51.098;13.716;2023-02-14T05:07:33;48.00;;;28.03;;
7557;SDS011;3820;51.098;13.716;2023-02-14T05:09:59;45.93;;;27.00;;
7557;SDS011;3820;51.098;13.716;2023-02-14T05:12:26;44.20;;;26.87;;
7557;SDS011;3820;51.098;13.716;2023-02-14T05:14:52;46.37;;;25.93;;
7557;SDS011;3820;51.098;13.716;2023-02-14T05:17:19;48.17;;;27.97;;
7557;SDS011;3820;51.098;13.716;2023-02-14T05:19:45;46.23;;;27.60;;
7557;SDS011;3820;51.098;13.716;2023-02-14T05:22:12;42.87;;;26.20;;
7557;SDS011;3820;51.098;13.716;2023-02-14T05:24:38;41.63;;;26.17;;
7557;SDS011;3820;51.098;13.716;2023-02-14T05:27:04;44.00;;;27.10;;
7557;SDS011;3820;51.098;13.716;2023-02-14T05:29:32;45.43;;;27.10;;
7557;SDS011;3820;51.098;13.716;2023-02-14T05:31:59;45.13;;;27.50;;
7557;SDS011;3820;51.098;13.716;2023-02-14T05:34:26;43.77;;;27.43;;
7557;SDS011;3820;51.098;13.716;2023-02-14T05:36:53;47.30;;;27.73;;
7557;SDS011;3820;51.098;13.716;2023-02-14T05:39:20;38.67;;;25.90;;
7557;SDS011;3820;51.098;13.716;2023-02-14T05:41:46;42.73;;;27.40;;
7557;SDS011;3820;51.098;13.716;2023-02-14T05:44:13;46.27;;;27.83;;
7557;SDS011;3820;51.098;13.716;2023-02-14T05:46:39;47.43;;;28.77;;
7557;SDS011;3820;51.098;13.716;2023-02-14T05:49:06;44.23;;;27.67;;
7557;SDS011;3820;51.098;13.716;2023-02-14T05:51:32;43.93;;;27.37;;
7557;SDS011;3820;51.098;13.716;2023-02-14T05:53:59;41.07;;;26.10;;
7557;SDS011;3820;51.098;13.716;2023-02-14T05:56:26;39.93;;;26.60;;
7557;SDS011;3820;51.098;13.716;2023-02-14T05:58:52;39.73;;;25.23;;
7557;SDS011;3820;51.098;13.716;2023-02-14T06:01:19;31.67;;;20.97;;
7557;SDS011;3820;51.098;13.716;2023-02-14T06:03:45;33.63;;;22.63;;
7557;SDS011;3820;51.098;13.716;2023-02-14T06:06:12;40.47;;;26.37;;
7557;SDS011;3820;51.098;13.716;2023-02-14T06:08:39;41.40;;;27.03;;
7557;SDS011;3820;51.098;13.716;2023-02-14T06:11:05;41.70;;;26.53;;
7557;SDS011;3820;51.098;13.716;2023-02-14T06:13:31;42.57;;;27.27;;
7557;SDS011;3820;51.098;13.716;2023-02-14T06:15:58;43.70;;;27.83;;
7557;SDS011;3820;51.098;13.716;2023-02-14T06:18:24;45.00;;;28.53;;
7557;SDS011;3820;51.098;13.716;2023-02-14T06:20:53;46.33;;;29.37;;
7557;SDS011;3820;51.098;13.716;2023-02-14T06:23:20;41.23;;;26.07;;
7557;SDS011;3820;51.098;13.716;2023-02-14T06:25:47;38.63;;;25.77;;
7557;SDS011;3820;51.098;13.716;2023-02-14T06:28:14;40.83;;;26.23;;
7557;SDS011;3820;51.098;13.716;2023-02-14T06:30:40;35.23;;;24.37;;
7557;SDS011;3820;51.098;13.716;2023-02-14T06:33:07;31.23;;;20.67;;
7557;SDS011;3820;51.098;13.716;2023-02-14T06:35:33;24.63;;;16.37;;
7557;SDS011;3820;51.098;13.716;2023-02-14T06:38:00;26.90;;;18.23;;
7557;SDS011;3820;51.098;13.716;2023-02-14T06:40:26;33.20;;;21.83;;
7557;SDS011;3820;51.098;13.716;2023-02-14T06:42:53;34.00;;;21.67;;
7557;SDS011;3820;51.098;13.716;2023-02-14T06:45:19;34.20;;;22.47;;
7557;SDS011;3820;51.098;13.716;2023-02-14T06:47:46;34.70;;;22.77;;
7557;SDS011;3820;51.098;13.716;2023-02-14T06:50:12;31.73;;;20.90;;
7557;SDS011;3820;51.098;13.716;2023-02-14T06:52:39;32.83;;;22.50;;
7557;SDS011;3820;51.098;13.716;2023-02-14T06:55:07;28.80;;;20.53;;
7557;SDS011;3820;51.098;13.716;2023-02-14T06:57:33;28.87;;;20.40;;
7557;SDS011;3820;51.098;13.716;2023-02-14T07:00:00;29.47;;;19.80;;
7557;SDS011;3820;51.098;13.716;2023-02-14T07:02:27;30.70;;;21.63;;
7557;SDS011;3820;51.098;13.716;2023-02-14T07:04:54;32.63;;;20.90;;
7557;SDS011;3820;51.098;13.716;2023-02-14T07:07:21;31.50;;;21.20;;
7557;SDS011;3820;51.098;13.716;2023-02-14T07:09:48;39.90;;;24.83;;
7557;SDS011;3820;51.098;13.716;2023-02-14T07:12:15;28.50;;;19.27;;
7557;SDS011;3820;51.098;13.716;2023-02-14T07:14:42;31.40;;;20.27;;
7557;SDS011;3820;51.098;13.716;2023-02-14T07:17:08;28.27;;;19.20;;
7557;SDS011;3820;51.098;13.716;2023-02-14T07:19:35;31.87;;;21.03;;
7557;SDS011;3820;51.098;13.716;2023-02-14T07:22:02;35.53;;;22.30;;
7557;SDS011;3820;51.098;13.716;2023-02-14T07:24:30;35.07;;;23.23;;
7557;SDS011;3820;51.098;13.716;2023-02-14T07:26:57;36.87;;;23.00;;
7557;SDS011;3820;51.098;13.716;2023-02-14T07:29:24;34.00;;;22.57;;
7557;SDS011;3820;51.098;13.716;2023-02-14T07:31:51;37.70;;;23.97;;
7557;SDS011;3820;51.098;13.716;2023-02-14T07:34:17;36.47;;;23.50;;
7557;SDS011;3820;51.098;13.716;2023-02-14T07:36:45;38.23;;;23.77;;
7557;SDS011;3820;51.098;13.716;2023-02-14T07:39:12;36.80;;;23.73;;
7557;SDS011;3820;51.098;13.716;2023-02-14T07:41:39;37.37;;;23.43;;
7557;SDS011;3820;51.098;13.716;2023-02-14T07:44:05;37.90;;;23.07;;
7557;SDS011;3820;51.098;13.716;2023-02-14T07:46:32;34.30;;;22.97;;
7557;SDS011;3820;51.098;13.716;2023-02-14T07:48:59;35.97;;;23.27;;
7557;SDS011;3820;51.098;13.716;2023-02-14T07:51:33;33.47;;;21.77;;
7557;SDS011;3820;51.098;13.716;2023-02-14T07:54:00;34.63;;;22.67;;
7557;SDS011;3820;51.098;13.716;2023-02-14T07:56:26;32.80;;;21.43;;
7557;SDS011;3820;51.098;13.716;2023-02-14T08:01:22;35.87;;;22.40;;
7557;SDS011;3820;51.098;13.716;2023-02-14T08:03:49;33.70;;;21.27;;
7557;SDS011;3820;51.098;13.716;2023-02-14T08:06:19;36.67;;;22.57;;
7557;SDS011;3820;51.098;13.716;2023-02-14T08:08:46;32.47;;;21.50;;
7557;SDS011;3820;51.098;13.716;2023-02-14T08:11:13;34.90;;;22.60;;
7557;SDS011;3820;51.098;13.716;2023-02-14T08:14:03;34.73;;;22.53;;
7557;SDS011;3820;51.098;13.716;2023-02-14T08:16:33;35.37;;;22.60;;
7557;SDS011;3820;51.098;13.716;2023-02-14T08:19:01;35.73;;;22.77;;
7557;SDS011;3820;51.098;13.716;2023-02-14T08:21:29;32.93;;;22.03;;
7557;SDS011;3820;51.098;13.716;2023-02-14T08:23:56;34.40;;;23.03;;
7557;SDS011;3820;51.098;13.716;2023-02-14T08:26:25;32.40;;;22.33;;
7557;SDS011;3820;51.098;13.716;2023-02-14T08:28:52;35.07;;;22.40;;
7557;SDS011;3820;51.098;13.716;2023-02-14T08:31:20;34.10;;;21.93;;
7557;SDS011;3820;51.098;13.716;2023-02-14T08:34:00;31.37;;;21.50;;
7557;SDS011;3820;51.098;13.716;2023-02-14T08:36:26;32.30;;;21.27;;
7557;SDS011;3820;51.098;13.716;2023-02-14T08:38:55;32.10;;;21.47;;
7557;SDS011;3820;51.098;13.716;2023-02-14T08:41:23;36.93;;;21.63;;
7557;SDS011;3820;51.098;13.716;2023-02-14T08:43:50;32.67;;;22.50;;
7557;SDS011;3820;51.098;13.716;2023-02-14T08:46:17;32.57;;;21.83;;
7557;SDS011;3820;51.098;13.716;2023-02-14T08:48:43;33.53;;;21.73;;
7557;SDS011;3820;51.098;13.716;2023-02-14T08:51:11;32.77;;;21.83;;
7557;SDS011;3820;51.098;13.716;2023-02-14T08:53:39;33.87;;;22.80;;
7557;SDS011;3820;51.098;13.716;2023-02-14T08:56:07;36.93;;;23.93;;
7557;SDS011;3820;51.098;13.716;2023-02-14T08:58:34;34.50;;;23.17;;
7557;SDS011;3820;51.098;13.716;2023-02-14T09:01:06;31.97;;;19.80;;
7557;SDS011;3820;51.098;13.716;2023-02-14T09:03:34;30.73;;;20.87;;
7557;SDS011;3820;51.098;13.716;2023-02-14T09:06:04;33.60;;;20.50;;
7557;SDS011;3820;51.098;13.716;2023-02-14T09:08:32;31.27;;;20.33;;
7557;SDS011;3820;51.098;13.716;2023-02-14T09:11:10;30.50;;;20.63;;
7557;SDS011;3820;51.098;13.716;2023-02-14T09:13:40;26.67;;;18.40;;
7557;SDS011;3820;51.098;13.716;2023-02-14T09:16:08;26.63;;;18.50;;
7557;SDS011;3820;51.098;13.716;2023-02-14T09:18:36;25.73;;;17.70;;
7557;SDS011;3820;51.098;13.716;2023-02-14T09:21:08;26.00;;;18.00;;
7557;SDS011;3820;51.098;13.716;2023-02-14T09:23:37;29.93;;;19.27;;
7557;SDS011;3820;51.098;13.716;2023-02-14T09:26:05;30.80;;;19.77;;
7557;SDS011;3820;51.098;13.716;2023-02-14T09:28:34;31.00;;;19.20;;
7557;SDS011;3820;51.098;13.716;2023-02-14T09:31:07;26.10;;;17.97;;
7557;SDS011;3820;51.098;13.716;2023-02-14T09:33:40;27.93;;;18.03;;
7557;SDS011;3820;51.098;13.716;2023-02-14T09:36:27;24.53;;;17.27;;
7557;SDS011;3820;51.098;13.716;2023-02-14T09:39:13;26.27;;;17.77;;
7557;SDS011;3820;51.098;13.716;2023-02-14T09:44:10;25.73;;;18.23;;
7557;SDS011;3820;51.098;13.716;2023-02-14T09:46:40;25.67;;;18.10;;
7557;SDS011;3820;51.098;13.716;2023-02-14T09:49:12;27.40;;;18.03;;
7557;SDS011;3820;51.098;13.716;2023-02-14T09:51:42;24.87;;;16.63;;
7557;SDS011;3820;51.098;13.716;2023-02-14T09:54:15;23.83;;;15.87;;
7557;SDS011;3820;51.098;13.716;2023-02-14T09:56:57;26.00;;;17.73;;
7557;SDS011;3820;51.098;13.716;2023-02-14T09:59:31;26.13;;;18.23;;
7557;SDS011;3820;51.098;13.716;2023-02-14T10:04:33;22.83;;;16.27;;
7557;SDS011;3820;51.098;13.716;2023-02-14T10:07:28;26.70;;;16.63;;
7557;SDS011;3820;51.098;13.716;2023-02-14T10:12:58;24.63;;;18.03;;
7557;SDS011;3820;51.098;13.716;2023-02-14T10:16:06;25.80;;;18.27;;
7557;SDS011;3820;51.098;13.716;2023-02-14T10:18:50;26.70;;;18.37;;
7557;SDS011;3820;51.098;13.716;2023-02-14T10:21:22;25.00;;;18.37;;
7557;SDS011;3820;51.098;13.716;2023-02-14T10:24:00;26.57;;;18.10;;
7557;SDS011;3820;51.098;13.716;2023-02-14T10:26:35;25.57;;;17.93;;
7557;SDS011;3820;51.098;13.716;2023-02-14T10:29:14;27.37;;;18.50;;
7557;SDS011;3820;51.098;13.716;2023-02-14T10:31:50;29.83;;;19.40;;
7557;SDS011;3820;51.098;13.716;2023-02-14T10:34:28;26.77;;;19.37;;
7557;SDS011;3820;51.098;13.716;2023-02-14T10:45:04;25.80;;;17.77;;
7557;SDS011;3820;51.098;13.716;2023-02-14T10:50:38;24.43;;;17.23;;
7557;SDS011;3820;51.098;13.716;2023-02-14T10:53:22;26.33;;;17.23;;
7557;SDS011;3820;51.098;13.716;2023-02-14T10:55:59;24.90;;;16.97;;
7557;SDS011;3820;51.098;13.716;2023-02-14T10:58:32;26.50;;;17.10;;
7557;SDS011;3820;51.098;13.716;2023-02-14T11:01:06;26.33;;;18.30;;
7557;SDS011;3820;51.098;13.716;2023-02-14T11:03:35;24.17;;;16.30;;
7557;SDS011;3820;51.098;13.716;2023-02-14T11:06:04;24.37;;;16.83;;
7557;SDS011;3820;51.098;13.716;2023-02-14T11:08:31;22.83;;;16.17;;
7557;SDS011;3820;51.098;13.716;2023-02-14T11:11:42;22.80;;;16.30;;
7557;SDS011;3820;51.098;13.716;2023-02-14T11:13:55;25.50;;;17.70;;
7557;SDS011;3820;51.098;13.716;2023-02-14T11:16:32;24.53;;;16.73;;
7557;SDS011;3820;51.098;13.716;2023-02-14T11:21:45;22.83;;;16.20;;
7557;SDS011;3820;51.098;13.716;2023-02-14T11:24:56;27.13;;;19.20;;
7557;SDS011;3820;51.098;13.716;2023-02-14T11:32:06;23.77;;;16.70;;
7557;SDS011;3820;51.098;13.716;2023-02-14T11:34:37;26.47;;;16.27;;
7557;SDS011;3820;51.098;13.716;2023-02-14T11:39:55;24.90;;;17.73;;
7557;SDS011;3820;51.098;13.716;2023-02-14T11:42:31;26.67;;;18.57;;
7557;SDS011;3820;51.098;13.716;2023-02-14T11:44:59;27.17;;;18.60;;
7557;SDS011;3820;51.098;13.716;2023-02-14T11:47:27;25.27;;;17.83;;
7557;SDS011;3820;51.098;13.716;2023-02-14T11:49:57;28.03;;;18.73;;
7557;SDS011;3820;51.098;13.716;2023-02-14T11:52:27;27.43;;;17.97;;
7557;SDS011;3820;51.098;13.716;2023-02-14T11:54:55;27.30;;;17.97;;
7557;SDS011;3820;51.098;13.716;2023-02-14T11:57:31;25.07;;;17.60;;
7557;SDS011;3820;51.098;13.716;2023-02-14T12:00:00;26.37;;;17.73;;
7557;SDS011;3820;51.098;13.716;2023-02-14T12:02:37;29.87;;;18.57;;
7557;SDS011;3820;51.098;13.716;2023-02-14T12:05:17;27.30;;;18.63;;
7557;SDS011;3820;51.098;13.716;2023-02-14T12:07:46;27.10;;;18.83;;
7557;SDS011;3820;51.098;13.716;2023-02-14T12:12:48;27.10;;;19.10;;
7557;SDS011;3820;51.098;13.716;2023-02-14T12:17:52;25.70;;;16.77;;
7557;SDS011;3820;51.098;13.716;2023-02-14T12:20:31;25.50;;;16.93;;
7557;SDS011;3820;51.098;13.716;2023-02-14T12:23:16;25.97;;;17.23;;
7557;SDS011;3820;51.098;13.716;2023-02-14T12:25:46;24.83;;;17.60;;
7557;SDS011;3820;51.098;13.716;2023-02-14T12:28:18;29.10;;;16.47;;
7557;SDS011;3820;51.098;13.716;2023-02-14T12:30:56;26.07;;;17.57;;
7557;SDS011;3820;51.098;13.716;2023-02-14T12:33:23;23.03;;;16.40;;
7557;SDS011;3820;51.098;13.716;2023-02-14T12:35:53;23.03;;;16.13;;
7557;SDS011;3820;51.098;13.716;2023-02-14T12:41:38;26.80;;;16.97;;
7557;SDS011;3820;51.098;13.716;2023-02-14T12:44:42;22.67;;;15.67;;
7557;SDS011;3820;51.098;13.716;2023-02-14T12:50:14;21.60;;;15.47;;
7557;SDS011;3820;51.098;13.716;2023-02-14T12:53:13;24.60;;;17.23;;
7557;SDS011;3820;51.098;13.716;2023-02-14T13:01:06;23.60;;;16.10;;
7557;SDS011;3820;51.098;13.716;2023-02-14T13:17:30;23.33;;;15.93;;
7557;SDS011;3820;51.098;13.716;2023-02-14T13:22:33;23.60;;;16.90;;
7557;SDS011;3820;51.098;13.716;2023-02-14T13:25:03;22.37;;;15.67;;
7557;SDS011;3820;51.098;13.716;2023-02-14T13:27:33;23.17;;;16.63;;
7557;SDS011;3820;51.098;13.716;2023-02-14T13:30:04;22.93;;;15.70;;
7557;SDS011;3820;51.098;13.716;2023-02-14T13:32:36;21.80;;;15.93;;
7557;SDS011;3820;51.098;13.716;2023-02-14T13:35:05;21.83;;;15.60;;
7557;SDS011;3820;51.098;13.716;2023-02-14T13:37:33;24.63;;;16.80;;
7557;SDS011;3820;51.098;13.716;2023-02-14T13:40:03;21.83;;;15.60;;
7557;SDS011;3820;51.098;13.716;2023-02-14T13:48:22;20.43;;;15.00;;
7557;SDS011;3820;51.098;13.716;2023-02-14T13:50:53;23.77;;;17.10;;
7557;SDS011;3820;51.098;13.716;2023-02-14T13:53:39;25.37;;;16.97;;
7557;SDS011;3820;51.098;13.716;2023-02-14T13:59:20;23.17;;;16.13;;
7557;SDS011;3820;51.098;13.716;2023-02-14T14:01:41;23.80;;;16.63;;
7557;SDS011;3820;51.098;13.716;2023-02-14T14:22:47;24.40;;;15.97;;
7557;SDS011;3820;51.098;13.716;2023-02-14T14:25:35;24.90;;;16.20;;
7557;SDS011;3820;51.098;13.716;2023-02-14T14:28:12;24.43;;;16.23;;
7557;SDS011;3820;51.098;13.716;2023-02-14T14:30:43;25.73;;;16.50;;
7557;SDS011;3820;51.098;13.716;2023-02-14T14:33:14;20.93;;;14.40;;
7557;SDS011;3820;51.098;13.716;2023-02-14T14:38:27;21.10;;;14.77;;
7557;SDS011;3820;51.098;13.716;2023-02-14T14:40:55;21.63;;;15.03;;
7557;SDS011;3820;51.098;13.716;2023-02-14T14:43:29;22.13;;;15.13;;
7557;SDS011;3820;51.098;13.716;2023-02-14T14:45:58;20.53;;;15.03;;
7557;SDS011;3820;51.098;13.716;2023-02-14T14:48:32;23.57;;;14.93;;
7557;SDS011;3820;51.098;13.716;2023-02-14T14:51:21;22.27;;;15.37;;
7557;SDS011;3820;51.098;13.716;2023-02-14T14:53:55;22.83;;;15.57;;
7557;SDS011;3820;51.098;13.716;2023-02-14T14:56:33;23.30;;;16.87;;
7557;SDS011;3820;51.098;13.716;2023-02-14T14:59:24;27.43;;;19.50;;
7557;SDS011;3820;51.098;13.716;2023-02-14T15:01:53;28.73;;;19.43;;
7557;SDS011;3820;51.098;13.716;2023-02-14T15:04:25;31.33;;;20.57;;
7557;SDS011;3820;51.098;13.716;2023-02-14T15:06:54;35.53;;;20.40;;
7557;SDS011;3820;51.098;13.716;2023-02-14T15:09:31;28.20;;;20.03;;
7557;SDS011;3820;51.098;13.716;2023-02-14T15:11:59;30.10;;;20.60;;
7557;SDS011;3820;51.098;13.716;2023-02-14T15:14:46;30.70;;;20.13;;
7557;SDS011;3820;51.098;13.716;2023-02-14T15:17:19;33.23;;;21.70;;
7557;SDS011;3820;51.098;13.716;2023-02-14T15:19:48;32.20;;;21.53;;
7557;SDS011;3820;51.098;13.716;2023-02-14T15:22:20;34.20;;;22.07;;
7557;SDS011;3820;51.098;13.716;2023-02-14T15:24:49;33.30;;;22.13;;
7557;SDS011;3820;51.098;13.716;2023-02-14T15:27:18;33.33;;;23.13;;
7557;SDS011;3820;51.098;13.716;2023-02-14T15:29:54;37.93;;;24.50;;
7557;SDS011;3820;51.098;13.716;2023-02-14T15:32:24;33.70;;;22.43;;
7557;SDS011;3820;51.098;13.716;2023-02-14T15:34:51;35.33;;;23.10;;
7557;SDS011;3820;51.098;13.716;2023-02-14T15:37:19;37.87;;;24.23;;
7557;SDS011;3820;51.098;13.716;2023-02-14T15:39:51;36.13;;;23.80;;
7557;SDS011;3820;51.098;13.716;2023-02-14T15:42:30;36.83;;;23.73;;
7557;SDS011;3820;51.098;13.716;2023-02-14T15:50:22;41.93;;;26.40;;
7557;SDS011;3820;51.098;13.716;2023-02-14T15:52:51;38.03;;;25.63;;
7557;SDS011;3820;51.098;13.716;2023-02-14T15:55:23;42.43;;;26.03;;
7557;SDS011;3820;51.098;13.716;2023-02-14T15:57:59;38.23;;;25.33;;
7557;SDS011;3820;51.098;13.716;2023-02-14T16:00:28;41.10;;;25.90;;
7557;SDS011;3820;51.098;13.716;2023-02-14T16:02:59;40.60;;;25.33;;
7557;SDS011;3820;51.098;13.716;2023-02-14T16:05:29;38.77;;;25.33;;
7557;SDS011;3820;51.098;13.716;2023-02-14T16:08:23;38.13;;;24.80;;
7557;SDS011;3820;51.098;13.716;2023-02-14T16:11:05;34.53;;;23.57;;
7557;SDS011;3820;51.098;13.716;2023-02-14T16:13:52;35.83;;;24.47;;
7557;SDS011;3820;51.098;13.716;2023-02-14T16:16:20;39.07;;;25.27;;
7557;SDS011;3820;51.098;13.716;2023-02-14T16:18:51;37.03;;;24.77;;
7557;SDS011;3820;51.098;13.716;2023-02-14T16:21:23;36.40;;;25.47;;
7557;SDS011;3820;51.098;13.716;2023-02-14T16:26:31;38.07;;;25.23;;
7557;SDS011;3820;51.098;13.716;2023-02-14T16:29:02;43.03;;;25.77;;
7557;SDS011;3820;51.098;13.716;2023-02-14T16:31:30;38.60;;;25.47;;
7557;SDS011;3820;51.098;13.716;2023-02-14T16:33:58;39.80;;;25.67;;
7557;SDS011;3820;51.098;13.716;2023-02-14T16:36:25;39.40;;;26.00;;
7557;SDS011;3820;51.098;13.716;2023-02-14T16:38:54;42.03;;;27.03;;
7557;SDS011;3820;51.098;13.716;2023-02-14T16:41:25;43.77;;;27.83;;
7557;SDS011;3820;51.098;13.716;2023-02-14T16:43:53;44.63;;;27.07;;
7557;SDS011;3820;51.098;13.716;2023-02-14T16:46:30;43.47;;;27.53;;
7557;SDS011;3820;51.098;13.716;2023-02-14T16:48:58;43.27;;;27.63;;
7557;SDS011;3820;51.098;13.716;2023-02-14T16:51:26;40.80;;;28.03;;
7557;SDS011;3820;51.098;13.716;2023-02-14T16:53:54;44.43;;;28.33;;
7557;SDS011;3820;51.098;13.716;2023-02-14T16:56:24;47.10;;;28.67;;
7557;SDS011;3820;51.098;13.716;2023-02-14T16:58:53;46.70;;;28.20;;
7557;SDS011;3820;51.098;13.716;2023-02-14T17:01:23;42.07;;;28.00;;
7557;SDS011;3820;51.098;13.716;2023-02-14T17:03:50;45.63;;;28.93;;
7557;SDS011;3820;51.098;13.716;2023-02-14T17:06:19;48.10;;;29.33;;
7557;SDS011;3820;51.098;13.716;2023-02-14T17:08:47;52.03;;;31.83;;
7557;SDS011;3820;51.098;13.716;2023-02-14T17:11:16;47.77;;;30.73;;